Time;durP1;ratioP1;P1;durP2;ratioP2;P2;SDS_P1;SDS_P2;PMS_P1;PMS_P2;Temp;Humidity;BMP_temperature;BMP_pressure;BME280_temperature;BME280_humidity;BME280_pressure;Samples;Min_cycle;Max_cycle;Signal;HPM_P1;HPM_P2
2022/02/01 00:02:12;;;;;;;;;9.00;5.25;;;;;4.78;62.77;102565.47;5049930;28;45922;-70
2022/02/01 00:07:37;;;;;;;;;8.00;4.00;;;;;4.77;62.63;102551.59;5042124;28;47124;-70
2022/02/01 00:18:40;;;;;;;;;8.00;5.00;;;;;4.63;63.08;102548.84;5006057;28;45612;-70
2022/02/01 00:37:29;;;;;;;;;7.50;7.50;;;;;4.66;63.47;102572.31;4990971;28;46424;-70
2022/02/01 00:39:59;;;;;;;;;8.00;8.00;;;;;4.71;63.72;102560.22;4993857;28;45383;-69
2022/02/01 00:42:25;;;;;;;;;6.75;5.25;;;;;4.80;63.02;102564.63;5009951;28;45579;-70
2022/02/01 00:44:50;;;;;;;;;8.50;6.00;;;;;4.86;63.09;102569.06;5047734;28;46153;-70
2022/02/01 00:47:16;;;;;;;;;6.50;6.50;;;;;4.85;63.42;102564.69;5051962;28;45444;-70
2022/02/01 00:49:42;;;;;;;;;8.25;6.75;;;;;4.93;63.41;102581.28;5052598;28;45436;-70
2022/02/01 00:52:08;;;;;;;;;6.25;6.25;;;;;4.91;63.54;102577.78;5054091;28;45437;-70
2022/02/01 00:54:33;;;;;;;;;7.75;7.25;;;;;4.91;62.76;102576.06;5054414;28;45492;-70
2022/02/01 00:56:59;;;;;;;;;6.50;6.50;;;;;4.87;62.83;102582.09;5052090;28;45521;-70
2022/02/01 00:59:25;;;;;;;;;11.25;5.00;;;;;4.82;63.34;102591.59;5052268;28;45392;-70
2022/02/01 01:01:50;;;;;;;;;8.75;4.75;;;;;4.82;63.45;102602.00;5051767;28;45498;-70
2022/02/01 01:04:16;;;;;;;;;10.25;5.00;;;;;4.83;63.24;102608.09;5052275;28;45576;-70
2022/02/01 01:06:41;;;;;;;;;7.00;4.25;;;;;4.80;63.64;102600.22;5054752;28;45362;-70
2022/02/01 01:09:07;;;;;;;;;10.00;7.00;;;;;4.77;63.61;102601.09;5052180;28;45519;-70
2022/02/01 01:11:32;;;;;;;;;9.50;7.50;;;;;4.73;63.16;102588.88;5051648;28;45571;-70
2022/02/01 01:46:14;;;;;;;;;12.25;8.00;;;;;4.82;63.61;102562.94;5053726;28;45925;-70
2022/02/01 01:54:07;;;;;;;;;8.75;5.75;;;;;4.81;63.99;102571.63;5056521;28;45455;-69
2022/02/01 01:56:34;;;;;;;;;8.00;4.50;;;;;4.85;63.79;102578.56;5055154;28;45370;-70
2022/02/01 01:59:01;;;;;;;;;7.75;5.50;;;;;4.87;64.20;102587.28;5054838;28;45394;-70
2022/02/01 02:01:31;;;;;;;;;10.00;7.00;;;;;4.83;64.05;102585.50;5055521;28;45696;-70
2022/02/01 02:03:56;;;;;;;;;3.50;3.50;;;;;4.87;64.23;102581.22;5053907;28;45316;-70
2022/02/01 02:06:22;;;;;;;;;4.25;2.00;;;;;4.88;64.92;102567.31;5054809;27;46468;-69
2022/02/01 02:08:51;;;;;;;;;2.75;2.00;;;;;4.87;64.81;102557.78;5054825;28;45423;-69
2022/02/01 02:16:35;;;;;;;;;5.75;4.25;;;;;4.98;64.99;102572.63;5042192;28;45901;-70
2022/02/01 02:19:01;;;;;;;;;5.50;5.50;;;;;5.07;64.87;102568.38;5054955;28;45415;-69
2022/02/01 02:21:27;;;;;;;;;7.00;5.00;;;;;5.09;65.09;102574.47;5053276;28;45448;-69
2022/02/01 02:23:52;;;;;;;;;8.67;5.00;;;;;5.13;64.90;102579.72;5057103;28;45589;-69
2022/02/01 02:26:18;;;;;;;;;7.25;5.25;;;;;5.13;65.25;102584.06;5054675;28;45286;-70
2022/02/01 02:28:45;;;;;;;;;5.00;5.00;;;;;5.20;65.25;102588.47;5054597;28;45355;-70
2022/02/01 02:31:11;;;;;;;;;6.25;4.25;;;;;5.26;65.43;102577.22;5055290;28;45564;-69
2022/02/01 02:33:38;;;;;;;;;12.00;5.50;;;;;5.27;64.93;102566.78;5054712;28;45439;-69
2022/02/01 02:38:49;;;;;;;;;9.25;5.25;;;;;5.28;65.75;102563.34;5054194;28;45403;-69
2022/02/01 02:46:51;;;;;;;;;4.75;4.00;;;;;5.52;65.69;102567.00;5054238;28;45772;-69
2022/02/01 02:49:23;;;;;;;;;8.75;5.75;;;;;5.56;66.17;102558.34;5055489;28;45991;-70
2022/02/01 02:51:50;;;;;;;;;9.00;7.75;;;;;5.63;65.69;102554.91;5050281;28;45612;-69
2022/02/01 02:54:21;;;;;;;;;6.00;5.00;;;;;5.63;65.90;102540.13;5055076;28;45416;-70
2022/02/01 02:56:49;;;;;;;;;6.75;5.00;;;;;5.73;66.10;102526.28;5054693;28;46233;-70
2022/02/01 02:59:15;;;;;;;;;8.25;5.00;;;;;5.62;65.35;102493.19;5054538;28;45323;-69
2022/02/01 03:01:42;;;;;;;;;8.75;5.00;;;;;5.81;65.10;102509.81;5054781;28;45486;-69
2022/02/01 03:04:08;;;;;;;;;4.00;2.00;;;;;5.85;64.95;102519.41;5054793;28;45356;-70
2022/02/01 03:06:34;;;;;;;;;9.50;8.00;;;;;5.89;65.21;102522.00;5054245;28;45430;-70
2022/02/01 03:08:59;;;;;;;;;12.75;5.50;;;;;5.90;65.31;102513.34;5057930;28;45393;-70
2022/02/01 03:11:24;;;;;;;;;4.75;4.75;;;;;5.86;64.89;102500.28;5055889;28;45384;-70
2022/02/01 03:13:55;;;;;;;;;9.50;7.00;;;;;5.95;65.08;102523.81;5057623;28;45537;-69
2022/02/01 03:21:35;;;;;;;;;11.50;5.00;;;;;6.01;65.38;102519.50;5056973;28;45436;-70
2022/02/01 03:24:01;;;;;;;;;7.75;3.50;;;;;6.06;65.37;102529.97;5058190;28;45415;-70
2022/02/01 03:26:26;;;;;;;;;5.00;5.00;;;;;6.03;65.10;102509.06;5057067;28;46308;-70
2022/02/01 03:28:52;;;;;;;;;4.50;4.00;;;;;6.06;65.02;102503.88;5055221;28;45873;-70
2022/02/01 03:31:17;;;;;;;;;6.00;2.00;;;;;6.11;65.25;102498.66;5058372;28;45372;-70
2022/02/01 03:33:43;;;;;;;;;5.25;2.00;;;;;6.17;65.77;102501.31;5056533;28;45412;-70
2022/02/01 03:36:09;;;;;;;;;9.25;6.00;;;;;6.19;65.57;102502.16;5057642;28;46342;-70
2022/02/01 03:38:35;;;;;;;;;6.00;4.00;;;;;6.18;65.36;102498.69;5056305;28;45453;-69
2022/02/01 03:41:00;;;;;;;;;1.75;1.75;;;;;6.23;65.58;102507.41;5057094;28;45523;-70
2022/02/01 03:43:25;;;;;;;;;8.75;5.00;;;;;6.24;65.71;102516.09;5058086;28;45324;-70
2022/02/01 03:45:51;;;;;;;;;6.00;1.75;;;;;6.25;65.47;102510.03;5054792;28;45946;-70
2022/02/01 03:48:16;;;;;;;;;4.75;2.75;;;;;6.28;65.54;102518.75;5055101;28;45543;-70
2022/02/01 03:50:43;;;;;;;;;10.75;4.00;;;;;6.31;65.82;102519.59;5057120;28;45444;-70
2022/02/01 03:53:09;;;;;;;;;6.50;4.75;;;;;6.33;65.85;102521.38;5057307;28;45469;-70
2022/02/01 03:55:34;;;;;;;;;4.25;4.25;;;;;6.35;65.95;102508.31;5056745;28;45685;-70
2022/02/01 03:58:00;;;;;;;;;6.25;3.00;;;;;6.35;66.23;102482.19;5056872;28;45537;-70
2022/02/01 04:00:25;;;;;;;;;12.00;5.67;;;;;6.37;66.50;102477.84;5056225;28;57401;-70
2022/02/01 04:02:50;;;;;;;;;5.25;5.00;;;;;6.39;66.47;102471.78;5057245;28;45516;-70
2022/02/01 04:05:16;;;;;;;;;8.75;7.50;;;;;6.42;66.51;102470.88;5056441;28;45387;-70
2022/02/01 04:07:46;;;;;;;;;6.00;4.00;;;;;6.45;66.57;102478.75;5055009;28;45622;-69
2022/02/01 04:10:12;;;;;;;;;0.75;0.75;;;;;6.44;67.01;102477.00;5056852;28;45518;-70
2022/02/01 04:12:39;;;;;;;;;4.00;2.00;;;;;6.47;66.56;102482.22;5056732;28;45416;-70
2022/02/01 04:15:06;;;;;;;;;4.25;3.00;;;;;6.48;66.54;102482.25;5056910;28;45433;-70
2022/02/01 04:17:32;;;;;;;;;5.00;3.25;;;;;6.49;67.16;102483.97;5072835;27;45402;-70
2022/02/01 04:19:57;;;;;;;;;2.50;1.75;;;;;6.50;67.02;102480.50;5056300;28;45387;-70
2022/02/01 04:22:22;;;;;;;;;5.25;4.00;;;;;6.51;67.13;102484.84;5056583;28;45337;-70
2022/02/01 04:24:48;;;;;;;;;4.25;2.50;;;;;6.51;67.47;102477.00;5055398;28;46516;-70
2022/02/01 04:27:30;;;;;;;;;2.00;2.00;;;;;6.54;67.19;102471.81;5056916;28;48273;-70
2022/02/01 04:30:08;;;;;;;;;4.00;4.00;;;;;6.56;67.89;102471.78;5056849;28;45474;-70
2022/02/01 04:32:39;;;;;;;;;6.25;4.50;;;;;6.61;67.54;102469.19;5056783;28;45379;-70
2022/02/01 04:35:10;;;;;;;;;6.00;4.75;;;;;6.61;67.99;102469.19;5055261;28;46435;-70
2022/02/01 04:37:36;;;;;;;;;5.50;2.00;;;;;6.62;68.19;102473.53;5054039;28;45867;-70
2022/02/01 04:40:04;;;;;;;;;4.50;2.25;;;;;6.62;68.52;102481.38;5055512;28;45773;-70
2022/02/01 04:42:33;;;;;;;;;1.50;1.00;;;;;6.64;68.92;102482.28;5053685;28;45324;-70
2022/02/01 04:44:59;;;;;;;;;2.50;2.50;;;;;6.64;69.62;102475.31;5056374;28;46530;-70
2022/02/01 04:47:30;;;;;;;;;3.25;3.00;;;;;6.63;69.65;102476.19;5055673;28;45663;-70
2022/02/01 04:49:56;;;;;;;;;8.75;5.00;;;;;6.63;69.93;102455.28;5056601;28;45485;-70
2022/02/01 04:52:21;;;;;;;;;6.50;4.00;;;;;6.67;69.77;102462.22;5056806;28;45404;-69
2022/02/01 04:54:47;;;;;;;;;4.25;3.50;;;;;6.69;70.34;102464.84;5055171;28;45278;-70
2022/02/01 04:57:12;;;;;;;;;8.00;4.00;;;;;6.69;70.28;102465.72;5055401;28;45560;-70
2022/02/01 04:59:37;;;;;;;;;4.00;4.00;;;;;6.71;70.36;102458.75;5055857;28;49050;-70
2022/02/01 05:02:03;;;;;;;;;6.75;3.25;;;;;6.71;70.52;102450.03;5056293;28;45489;-70
2022/02/01 05:04:28;;;;;;;;;6.00;4.50;;;;;6.71;70.90;102444.81;5054722;28;47454;-70
2022/02/01 05:06:54;;;;;;;;;3.00;2.00;;;;;6.73;70.61;102438.75;5055080;28;45447;-70
2022/02/01 05:09:21;;;;;;;;;5.00;2.00;;;;;6.76;70.69;102430.00;5056303;28;45536;-70
2022/02/01 05:11:49;;;;;;;;;4.75;3.25;;;;;6.78;71.07;102434.34;5054917;28;45494;-70
2022/02/01 05:14:19;;;;;;;;;4.25;3.00;;;;;6.79;71.09;102441.34;5054616;28;45485;-70
2022/02/01 05:19:33;;;;;;;;;5.75;4.00;;;;;6.81;71.85;102438.72;5040459;28;47349;-70
2022/02/01 05:22:02;;;;;;;;;8.25;5.00;;;;;6.82;71.82;102450.03;5055232;28;45240;-71
2022/02/01 05:24:28;;;;;;;;;4.75;3.50;;;;;6.78;72.56;102457.00;5054930;27;45443;-70
2022/02/01 05:26:54;;;;;;;;;2.00;1.00;;;;;6.83;72.41;102452.66;5055627;28;45331;-70
2022/02/01 05:29:20;;;;;;;;;3.50;3.50;;;;;6.88;72.40;102463.97;5054955;28;45711;-70
2022/02/01 05:31:51;;;;;;;;;3.75;2.00;;;;;6.86;72.98;102468.34;5054713;28;45513;-70
2022/02/01 05:34:16;;;;;;;;;3.75;3.25;;;;;6.85;72.79;102458.75;5054100;28;46573;-70
2022/02/01 05:36:42;;;;;;;;;6.00;2.00;;;;;6.86;73.38;102442.22;5054204;28;46898;-70
2022/02/01 05:39:16;;;;;;;;;9.00;3.75;;;;;6.81;74.44;102457.00;5055265;28;45550;-70
2022/02/01 05:41:42;;;;;;;;;4.00;1.25;;;;;6.77;74.86;102457.88;5055307;28;45553;-70
2022/02/01 05:44:07;;;;;;;;;4.50;2.00;;;;;6.80;74.56;102463.13;5054019;28;46146;-70
2022/02/01 05:46:35;;;;;;;;;4.00;3.25;;;;;6.82;74.78;102448.28;5054125;28;45517;-70
2022/02/01 05:49:01;;;;;;;;;2.75;2.00;;;;;6.80;74.65;102443.09;5055087;28;45500;-70
2022/02/01 05:51:26;;;;;;;;;8.25;3.00;;;;;6.76;75.11;102428.28;5054644;27;45643;-70
2022/02/01 05:53:51;;;;;;;;;4.50;3.25;;;;;6.74;75.27;102431.78;5055371;28;46776;-70
2022/02/01 05:56:17;;;;;;;;;6.75;2.50;;;;;6.77;75.96;102431.75;5055161;28;49619;-70
2022/02/01 05:58:43;;;;;;;;;6.75;3.25;;;;;6.76;75.67;102423.03;5055861;28;45376;-71
2022/02/01 06:01:08;;;;;;;;;2.25;1.50;;;;;6.77;75.79;102423.91;5071078;28;45466;-71
2022/02/01 06:03:34;;;;;;;;;3.50;2.25;;;;;6.74;76.21;102408.25;5053856;28;46591;-71
2022/02/01 06:06:01;;;;;;;;;5.50;3.00;;;;;6.71;76.16;102395.19;5055749;28;45409;-71
2022/02/01 06:08:26;;;;;;;;;1.75;1.50;;;;;6.73;76.67;102385.59;5054976;28;45591;-71
2022/02/01 06:10:52;;;;;;;;;5.00;2.00;;;;;6.68;76.67;102403.00;5055261;28;45542;-71
2022/02/01 06:13:17;;;;;;;;;5.50;1.75;;;;;6.67;77.29;102394.28;5068586;27;48375;-71
2022/02/01 06:15:42;;;;;;;;;5.00;2.00;;;;;6.56;77.17;102387.34;5053305;28;45535;-70
2022/02/01 06:18:08;;;;;;;;;2.00;1.50;;;;;6.69;77.32;102399.53;5057109;28;45536;-71
2022/02/01 06:20:34;;;;;;;;;2.50;2.50;;;;;6.74;77.52;102405.63;5054661;28;45513;-70
2022/02/01 06:22:59;;;;;;;;;1.75;1.50;;;;;6.71;78.61;102396.03;5054131;28;45561;-70
2022/02/01 06:25:47;;;;;;;;;3.50;1.75;;;;;6.70;78.32;102399.53;5055016;28;45414;-70
2022/02/01 06:28:13;;;;;;;;;2.00;2.00;;;;;6.72;78.10;102397.78;5055280;28;45550;-71
2022/02/01 06:30:39;;;;;;;;;4.25;2.00;;;;;6.76;78.55;102393.44;5052779;28;45505;-70
2022/02/01 06:33:04;;;;;;;;;6.00;1.75;;;;;6.77;78.43;102401.25;5054485;28;46569;-70
2022/02/01 06:35:30;;;;;;;;;5.75;5.00;;;;;6.81;78.69;102391.69;5053853;28;45457;-70
2022/02/01 06:37:55;;;;;;;;;5.00;4.00;;;;;6.79;78.56;102402.16;5060031;28;45561;-71
2022/02/01 06:40:21;;;;;;;;;7.00;2.00;;;;;6.80;78.37;102389.94;5073383;27;45591;-71
2022/02/01 06:42:47;;;;;;;;;4.50;3.00;;;;;6.85;78.72;102401.28;5057872;28;46839;-71
2022/02/01 06:45:12;;;;;;;;;11.00;5.00;;;;;6.83;78.52;102395.16;5058392;28;45507;-71
2022/02/01 06:47:38;;;;;;;;;7.00;5.00;;;;;6.80;78.99;102400.41;5057442;28;45603;-71
2022/02/01 06:50:04;;;;;;;;;3.00;2.75;;;;;6.82;78.41;102405.63;5057730;28;45413;-71
2022/02/01 06:52:31;;;;;;;;;9.50;2.50;;;;;6.80;78.37;102411.72;5058501;28;47555;-71
2022/02/01 06:55:01;;;;;;;;;6.00;1.00;;;;;6.76;78.64;102396.91;5057249;28;45432;-71
2022/02/01 06:57:26;;;;;;;;;4.00;3.25;;;;;6.79;78.99;102406.50;5056843;27;45352;-72
2022/02/01 06:59:51;;;;;;;;;5.75;2.75;;;;;6.75;79.04;102400.41;5061384;28;45439;-72
2022/02/01 07:02:16;;;;;;;;;6.00;2.00;;;;;6.76;78.98;102404.75;5057087;28;57735;-72
2022/02/01 07:04:42;;;;;;;;;9.00;3.33;;;;;6.81;79.07;102407.38;5065915;28;51523;-71
2022/02/01 07:07:07;;;;;;;;;6.75;2.75;;;;;6.77;79.05;102397.78;5058308;27;45938;-71
2022/02/01 07:09:34;;;;;;;;;9.25;4.50;;;;;6.80;79.29;102413.47;5060150;28;45380;-71
2022/02/01 07:12:00;;;;;;;;;5.00;4.00;;;;;6.84;79.40;102412.59;5058302;28;46405;-72
2022/02/01 07:14:25;;;;;;;;;5.75;5.75;;;;;6.79;79.28;102391.69;5053385;28;45537;-71
2022/02/01 07:16:50;;;;;;;;;9.67;6.00;;;;;6.84;79.82;102399.53;5045146;28;46057;-71
2022/02/01 07:19:16;;;;;;;;;9.00;5.00;;;;;6.90;79.76;102403.88;5053022;28;47957;-71
2022/02/01 07:21:41;;;;;;;;;6.00;2.75;;;;;6.86;80.10;102402.13;5056051;28;46604;-72
2022/02/01 07:24:16;;;;;;;;;5.50;5.25;;;;;6.88;79.75;102398.63;5051190;28;46386;-71
2022/02/01 07:26:51;;;;;;;;;3.25;3.25;;;;;6.86;80.49;102391.69;5047199;28;45516;-72
2022/02/01 07:29:17;;;;;;;;;6.75;3.25;;;;;6.88;80.48;102403.88;5052015;28;45430;-72
2022/02/01 07:31:42;;;;;;;;;6.00;3.25;;;;;6.88;80.57;102398.63;5053012;28;46385;-72
2022/02/01 07:34:07;;;;;;;;;6.50;2.50;;;;;6.91;81.14;102406.50;5048864;28;45504;-72
2022/02/01 07:36:33;;;;;;;;;7.00;4.00;;;;;6.83;80.88;102387.31;5054999;28;45285;-72
2022/02/01 07:38:58;;;;;;;;;5.00;5.00;;;;;6.93;81.04;102415.19;5052794;28;45466;-72
2022/02/01 07:41:23;;;;;;;;;6.00;6.00;;;;;6.93;80.89;102399.50;5052916;28;46571;-72
2022/02/01 07:43:49;;;;;;;;;7.50;3.50;;;;;6.89;81.69;102389.94;5052201;28;57717;-72
2022/02/01 07:46:15;;;;;;;;;5.50;4.50;;;;;6.90;81.81;102383.84;5054180;28;45408;-72
2022/02/01 07:48:41;;;;;;;;;6.00;5.25;;;;;6.92;81.81;102386.44;5055935;28;45522;-72
2022/02/01 07:51:06;;;;;;;;;8.50;5.25;;;;;6.92;82.31;102386.44;5053622;28;47041;-72
2022/02/01 07:53:31;;;;;;;;;10.00;6.00;;;;;6.96;81.92;102386.44;5066379;28;45440;-73
2022/02/01 07:55:57;;;;;;;;;10.25;6.00;;;;;6.91;82.46;102375.13;5052641;28;45841;-72
2022/02/01 07:58:22;;;;;;;;;11.25;6.00;;;;;6.93;82.06;102367.28;5053547;28;45443;-72
2022/02/01 08:00:47;;;;;;;;;8.75;6.25;;;;;6.94;82.76;102364.69;5054349;28;46550;-71
2022/02/01 08:03:13;;;;;;;;;9.33;7.33;;;;;6.93;82.49;102355.06;5054251;28;48228;-72
2022/02/01 08:05:38;;;;;;;;;7.25;3.25;;;;;6.95;82.57;102355.97;5050740;28;46228;-71
2022/02/01 08:08:04;;;;;;;;;9.25;7.75;;;;;7.03;82.77;102364.63;5044388;28;45531;-71
2022/02/01 08:10:45;;;;;;;;;9.25;6.00;;;;;7.02;82.78;102360.28;5052391;28;45654;-71
2022/02/01 08:21:09;;;;;;;;;9.25;5.00;;;;;7.02;84.13;102328.91;5052428;28;45636;-71
2022/02/01 08:23:35;;;;;;;;;4.50;2.50;;;;;7.01;84.77;102331.56;5053585;28;45586;-72
2022/02/01 08:26:00;;;;;;;;;6.00;4.75;;;;;7.06;85.45;102332.41;5051907;28;45462;-72
2022/02/01 08:28:27;;;;;;;;;5.00;5.00;;;;;7.05;84.25;102325.44;5049168;28;45371;-71
2022/02/01 08:30:54;;;;;;;;;18.50;15.00;;;;;7.05;84.26;102328.94;5054292;28;45540;-71
2022/02/01 08:33:20;;;;;;;;;14.00;7.75;;;;;7.09;84.08;102329.75;5054534;28;45356;-71
2022/02/01 08:35:45;;;;;;;;;5.25;5.00;;;;;7.16;83.69;102328.88;5051714;28;45335;-71
2022/02/01 08:38:11;;;;;;;;;5.00;4.75;;;;;7.20;83.98;102321.88;5052847;28;45654;-71
2022/02/01 08:40:37;;;;;;;;;14.25;7.25;;;;;7.25;83.50;102314.88;5053129;28;46461;-71
2022/02/01 08:43:03;;;;;;;;;6.75;6.75;;;;;7.31;83.06;102320.13;5053011;28;45606;-72
2022/02/01 08:45:29;;;;;;;;;3.25;3.25;;;;;7.30;83.79;102297.44;5051512;28;45482;-71
2022/02/01 08:47:57;;;;;;;;;10.00;6.00;;;;;7.36;84.11;102304.38;5051944;28;45493;-71
2022/02/01 08:50:28;;;;;;;;;12.50;7.25;;;;;7.32;83.72;102295.72;5050451;28;45481;-71
2022/02/01 08:52:59;;;;;;;;;4.25;4.25;;;;;7.38;83.52;102302.66;5053129;28;45324;-71
2022/02/01 08:55:37;;;;;;;;;5.75;4.50;;;;;7.45;83.88;102304.34;5049815;28;45446;-71
2022/02/01 08:58:04;;;;;;;;;5.75;5.75;;;;;7.41;83.88;102298.25;5041953;28;45530;-71
2022/02/01 09:00:31;;;;;;;;;9.75;5.75;;;;;7.49;83.64;102299.09;5050752;28;45623;-71
2022/02/01 09:02:58;;;;;;;;;6.75;5.50;;;;;7.50;83.68;102287.75;5051731;28;46011;-71
2022/02/01 09:05:24;;;;;;;;;6.50;3.00;;;;;7.55;84.89;102280.75;5051598;28;45655;-70
2022/02/01 09:07:50;;;;;;;;;6.00;5.75;;;;;7.55;85.76;102277.25;5053689;28;45471;-71
2022/02/01 09:10:15;;;;;;;;;10.00;5.00;;;;;7.55;86.83;102290.34;5053436;28;46446;-71
2022/02/01 09:12:41;;;;;;;;;6.00;5.00;;;;;7.54;87.22;102276.41;5063625;28;45307;-71
2022/02/01 09:15:06;;;;;;;;;6.50;5.25;;;;;7.56;87.21;102266.78;5054737;27;45782;-71
2022/02/01 09:17:32;;;;;;;;;6.00;5.00;;;;;7.44;87.72;102261.63;5048811;28;45675;-71
2022/02/01 09:19:58;;;;;;;;;9.75;6.00;;;;;7.54;86.30;102265.06;5052513;28;55479;-71
2022/02/01 09:22:24;;;;;;;;;7.25;5.25;;;;;7.52;85.62;102257.25;5053456;28;45841;-70
2022/02/01 09:24:49;;;;;;;;;8.50;6.00;;;;;7.55;85.58;102257.19;5070475;28;45782;-70
2022/02/01 09:27:15;;;;;;;;;5.50;5.50;;;;;7.59;85.14;102271.16;5052674;28;45457;-71
2022/02/01 09:29:40;;;;;;;;;5.75;5.00;;;;;7.69;85.15;102266.72;5052176;28;45455;-71
2022/02/01 09:32:06;;;;;;;;;10.50;7.00;;;;;7.75;84.92;102253.59;5051063;28;45509;-71
2022/02/01 09:34:32;;;;;;;;;6.25;6.00;;;;;7.79;84.36;102256.19;5062300;28;45716;-70
2022/02/01 09:37:00;;;;;;;;;6.50;5.50;;;;;7.81;84.67;102256.16;5053737;28;45363;-70
2022/02/01 09:39:25;;;;;;;;;14.00;10.00;;;;;7.82;84.55;102261.38;5049711;28;46107;-71
2022/02/01 09:41:52;;;;;;;;;10.75;9.75;;;;;7.84;84.49;102257.03;5048244;28;45544;-71
2022/02/01 09:44:19;;;;;;;;;9.75;6.25;;;;;7.88;84.73;102249.13;5053813;28;45470;-71
2022/02/01 09:46:46;;;;;;;;;12.25;6.50;;;;;7.88;84.65;102254.38;5052069;27;45313;-71
2022/02/01 09:49:16;;;;;;;;;9.00;8.50;;;;;7.87;84.65;102236.94;5052978;28;46297;-70
2022/02/01 09:51:42;;;;;;;;;9.25;6.00;;;;;7.90;84.48;102244.78;5053723;28;45396;-70
2022/02/01 09:54:07;;;;;;;;;13.50;8.50;;;;;7.90;84.25;102250.00;5052877;28;45566;-71
2022/02/01 09:56:32;;;;;;;;;13.50;7.00;;;;;7.92;84.59;102240.38;5050865;28;45312;-70
2022/02/01 09:58:58;;;;;;;;;8.75;6.75;;;;;7.93;84.07;102236.88;5050453;28;45681;-71
2022/02/01 10:01:28;;;;;;;;;11.00;7.00;;;;;7.99;84.35;102248.19;5050724;28;45546;-71
2022/02/01 10:04:01;;;;;;;;;8.50;6.75;;;;;8.03;84.32;102249.88;5053959;28;45424;-71
2022/02/01 10:06:31;;;;;;;;;9.50;7.00;;;;;8.04;84.50;102250.78;5053324;28;45530;-71
2022/02/01 10:09:14;;;;;;;;;12.50;7.00;;;;;8.10;84.35;102251.59;5053204;28;45632;-71
2022/02/01 10:11:41;;;;;;;;;12.00;7.00;;;;;8.16;84.49;102255.91;5056368;28;45463;-71
2022/02/01 10:14:10;;;;;;;;;10.00;8.75;;;;;8.19;84.27;102239.28;5051835;28;45819;-71
2022/02/01 10:16:50;;;;;;;;;7.75;7.50;;;;;8.26;84.23;102251.44;5054549;28;45391;-71
2022/02/01 10:19:17;;;;;;;;;10.00;7.50;;;;;8.29;84.21;102247.03;5055816;28;46366;-71
2022/02/01 10:21:53;;;;;;;;;6.00;6.00;;;;;8.35;84.09;102239.13;5057982;28;45383;-71
2022/02/01 10:24:33;;;;;;;;;10.50;7.00;;;;;8.33;83.97;102230.41;5057063;28;45577;-71
2022/02/01 10:27:05;;;;;;;;;7.00;5.50;;;;;8.42;84.17;102247.84;5055235;28;45547;-71
2022/02/01 10:29:30;;;;;;;;;15.00;7.50;;;;;8.43;83.89;102238.22;5055477;28;45730;-71
2022/02/01 10:31:58;;;;;;;;;13.75;9.75;;;;;8.47;84.20;102243.41;5054154;28;45435;-71
2022/02/01 10:36:54;;;;;;;;;8.00;6.75;;;;;8.60;84.21;102234.53;5057770;28;45434;-71
2022/02/01 10:39:25;;;;;;;;;10.00;9.50;;;;;8.60;83.58;102226.66;5060887;28;45538;-71
2022/02/01 10:41:59;;;;;;;;;4.50;4.50;;;;;8.68;83.67;102225.72;5058067;28;45762;-71
2022/02/01 10:44:46;;;;;;;;;7.50;7.50;;;;;8.62;83.59;102213.56;5058372;28;49364;-71
2022/02/01 10:47:16;;;;;;;;;11.50;8.00;;;;;8.65;83.61;102220.50;5058180;28;45478;-71
2022/02/01 10:49:42;;;;;;;;;9.25;7.75;;;;;8.66;83.46;102217.00;5058153;28;45475;-71
2022/02/01 10:52:10;;;;;;;;;10.00;6.50;;;;;8.63;83.83;102215.28;5053180;28;45605;-70
2022/02/01 10:54:37;;;;;;;;;6.75;6.75;;;;;8.62;83.88;102209.19;5057635;28;45397;-71
2022/02/01 10:57:05;;;;;;;;;10.75;9.75;;;;;8.67;83.81;102209.13;5053286;28;46217;-71
2022/02/01 10:59:31;;;;;;;;;9.50;5.00;;;;;8.71;84.29;102196.84;5053827;28;46112;-71
2022/02/01 11:02:00;;;;;;;;;8.25;6.25;;;;;8.78;84.16;102186.28;5054168;28;45796;-70
2022/02/01 11:04:27;;;;;;;;;7.25;6.00;;;;;8.83;83.97;102184.47;5052652;28;45555;-70
2022/02/01 11:06:53;;;;;;;;;9.00;6.25;;;;;8.88;83.70;102173.94;5056750;28;45403;-69
2022/02/01 11:09:24;;;;;;;;;10.50;9.00;;;;;8.92;83.72;102172.13;5056066;28;46188;-68
2022/02/01 11:11:55;;;;;;;;;6.00;5.25;;;;;8.97;84.43;102176.41;5052902;28;45813;-68
2022/02/01 11:14:25;;;;;;;;;7.00;7.00;;;;;9.03;84.24;102165.88;5054088;28;45570;-69
2022/02/01 11:17:07;;;;;;;;;7.00;6.25;;;;;9.04;84.11;102159.72;5053452;28;45556;-69
2022/02/01 11:19:44;;;;;;;;;7.00;6.25;;;;;9.11;84.36;102157.88;5039121;28;46125;-70
2022/02/01 11:22:21;;;;;;;;;5.75;2.00;;;;;9.20;84.33;102162.13;5054674;28;45853;-70
2022/02/01 11:24:59;;;;;;;;;11.50;6.00;;;;;9.26;84.37;102138.44;5056509;28;45386;-70
2022/02/01 11:27:37;;;;;;;;;10.25;5.75;;;;;9.35;84.23;102141.78;5054662;28;45484;-70
2022/02/01 11:30:11;;;;;;;;;7.00;7.00;;;;;9.34;83.67;102137.44;5050760;28;46610;-70
2022/02/01 11:32:41;;;;;;;;;9.25;9.25;;;;;9.41;83.86;102143.44;5052381;28;45565;-70
2022/02/01 11:35:11;;;;;;;;;7.25;6.25;;;;;9.48;83.77;102141.59;5052557;28;45609;-70
2022/02/01 11:37:50;;;;;;;;;9.75;5.00;;;;;9.44;83.54;102138.13;5055284;28;45347;-70
2022/02/01 11:40:16;;;;;;;;;4.50;4.50;;;;;9.50;84.08;102145.94;5044683;27;46499;-70
2022/02/01 11:42:53;;;;;;;;;6.00;6.00;;;;;9.41;83.56;102128.56;5068400;28;45878;-70
2022/02/01 11:45:45;;;;;;;;;5.50;4.75;;;;;9.56;83.74;102127.47;5052879;28;45578;-70
2022/02/01 11:48:29;;;;;;;;;7.00;7.00;;;;;9.62;83.47;102129.97;5045630;28;45528;-70
2022/02/01 11:51:12;;;;;;;;;6.25;4.50;;;;;9.61;84.00;102114.25;5053240;28;48304;-70
2022/02/01 11:53:40;;;;;;;;;7.00;3.00;;;;;9.74;83.52;102120.16;5055150;27;46499;-69
2022/02/01 11:56:07;;;;;;;;;10.00;6.75;;;;;9.74;83.51;102105.28;5050543;28;45872;-68
2022/02/01 11:58:45;;;;;;;;;9.50;6.50;;;;;9.90;83.58;102116.38;5049882;28;45621;-68
2022/02/01 12:01:31;;;;;;;;;11.25;5.50;;;;;9.96;83.24;102120.63;5050701;28;45550;-68
2022/02/01 12:04:10;;;;;;;;;6.25;5.00;;;;;10.02;83.47;102123.16;5055484;27;45426;-68
2022/02/01 12:06:45;;;;;;;;;6.00;4.25;;;;;10.08;83.37;102126.56;5051335;28;45427;-68
2022/02/01 12:09:19;;;;;;;;;5.00;5.00;;;;;10.07;83.63;102123.94;5050808;28;46034;-68
2022/02/01 12:11:45;;;;;;;;;4.25;4.25;;;;;10.11;83.60;102113.34;5044758;28;46493;-68
2022/02/01 12:14:10;;;;;;;;;6.75;5.75;;;;;10.20;83.63;102113.16;5050198;28;45948;-69
2022/02/01 12:16:36;;;;;;;;;5.25;4.50;;;;;10.20;83.54;102110.53;5049624;28;45470;-68
2022/02/01 12:19:13;;;;;;;;;6.00;5.00;;;;;10.25;83.58;102122.75;5066164;28;45350;-68
2022/02/01 12:21:58;;;;;;;;;8.75;5.50;;;;;10.28;83.26;102115.66;5053717;28;46564;-68
2022/02/01 12:24:27;;;;;;;;;3.00;2.00;;;;;10.28;83.38;102114.81;5052491;28;45850;-68
2022/02/01 12:26:53;;;;;;;;;3.00;2.00;;;;;10.28;83.21;102099.91;5056817;28;48275;-68
2022/02/01 12:29:18;;;;;;;;;6.75;3.00;;;;;10.28;83.40;102096.41;5056262;27;45368;-68
2022/02/01 12:31:44;;;;;;;;;1.25;1.25;;;;;10.33;83.41;102087.53;5049280;28;45453;-68
2022/02/01 12:34:12;;;;;;;;;2.75;2.00;;;;;10.33;83.12;102077.03;5049862;28;45447;-69
2022/02/01 12:36:43;;;;;;;;;2.75;2.75;;;;;10.33;83.13;102084.03;5067309;28;45804;-68
2022/02/01 12:39:32;;;;;;;;;7.00;4.25;;;;;10.38;83.53;102077.78;5049100;28;45513;-68
2022/02/01 12:42:16;;;;;;;;;4.00;2.00;;;;;10.40;83.68;102080.41;5048732;28;47104;-69
2022/02/01 12:47:27;;;;;;;;;6.00;4.50;;;;;10.49;83.74;102074.94;5040147;28;46051;-68
2022/02/01 12:49:54;;;;;;;;;3.50;2.00;;;;;10.50;83.68;102058.31;5048735;28;45590;-68
2022/02/01 12:52:24;;;;;;;;;2.00;2.00;;;;;10.51;83.47;102054.78;5032982;28;46215;-68
2022/02/01 12:54:59;;;;;;;;;3.25;2.00;;;;;10.63;83.69;102056.25;5048316;28;45815;-69
2022/02/01 12:57:25;;;;;;;;;3.00;2.00;;;;;10.66;83.59;102054.44;5051778;28;45516;-69
2022/02/01 12:59:58;;;;;;;;;2.25;2.25;;;;;10.69;83.20;102042.97;5061977;27;45595;-68
2022/02/01 13:02:34;;;;;;;;;3.00;1.75;;;;;10.74;83.22;102037.59;5049767;28;45595;-68
2022/02/01 13:05:03;;;;;;;;;2.50;1.00;;;;;10.78;83.17;102034.88;5054707;28;45443;-68
2022/02/01 13:08:37;;;;;;;;;2.50;2.50;;;;;10.71;83.28;102022.78;5049126;28;45379;-68
2022/02/01 13:16:21;;;;;;;;;4.50;3.00;;;;;10.79;83.20;102028.72;5051303;28;45386;-68
2022/02/01 13:21:17;;;;;;;;;2.75;2.25;;;;;10.86;83.20;102001.38;5048418;28;45382;-68
2022/02/01 13:23:46;;;;;;;;;1.00;1.00;;;;;10.88;83.41;101999.56;5057004;27;46367;-68
2022/02/01 13:26:25;;;;;;;;;3.00;2.00;;;;;10.95;83.24;101995.03;5045820;28;45652;-68